createdAt,value
2022-10-12T00:01:17.159Z,4.35
2022-10-12T00:03:45.008Z,6.30
2022-10-12T00:06:25.268Z,4.70
2022-10-12T00:08:55.920Z,4.18
2022-10-12T00:11:28.174Z,3.20
2022-10-12T00:13:57.637Z,7.22
2022-10-12T00:16:27.028Z,3.30
2022-10-12T00:18:56.774Z,4.63
2022-10-12T00:21:29.355Z,3.55
2022-10-12T00:24:02.153Z,4.57
2022-10-12T00:26:30.464Z,5.05
2022-10-12T00:29:01.494Z,4.32
2022-10-12T00:31:31.247Z,6.32
2022-10-12T00:34:04.257Z,4.68
2022-10-12T00:36:35.973Z,4.10
2022-10-12T00:39:09.226Z,3.83
2022-10-12T00:41:42.954Z,4.05
2022-10-12T00:44:35.860Z,4.38
2022-10-12T00:47:16.804Z,3.15
2022-10-12T00:49:55.314Z,4.22
2022-10-12T00:52:37.000Z,6.78
2022-10-12T00:57:34.610Z,6.60
2022-10-12T01:00:08.683Z,5.28
2022-10-12T01:02:49.324Z,3.95
2022-10-12T01:07:46.862Z,4.57
2022-10-12T01:10:15.820Z,4.15
2022-10-12T01:12:47.426Z,4.53
2022-10-12T01:18:17.954Z,3.08
2022-10-12T01:21:30.114Z,4.97
2022-10-12T01:24:23.977Z,5.68
2022-10-12T01:27:03.803Z,3.88
2022-10-12T01:30:07.979Z,7.80
2022-10-12T01:33:25.436Z,5.63
2022-10-12T01:36:10.021Z,7.05
2022-10-12T01:38:41.894Z,6.32
2022-10-12T01:41:19.122Z,4.65
2022-10-12T01:43:47.653Z,4.60
2022-10-12T01:46:15.603Z,5.97
2022-10-12T01:48:54.500Z,5.55
2022-10-12T01:52:15.924Z,4.35
2022-10-12T01:55:08.402Z,3.58
2022-10-12T01:58:33.856Z,4.70
2022-10-12T02:01:27.030Z,5.05
2022-10-12T02:04:03.209Z,5.53
2022-10-12T02:06:45.450Z,6.88
2022-10-12T02:09:26.793Z,10.60
2022-10-12T02:12:02.402Z,7.45
2022-10-12T02:14:38.920Z,6.68
2022-10-12T02:17:12.436Z,15.63
2022-10-12T02:19:49.401Z,13.05
2022-10-12T02:22:18.414Z,29.42
2022-10-12T02:24:51.867Z,22.85
2022-10-12T02:27:21.692Z,21.17
2022-10-12T02:29:49.875Z,20.02
2022-10-12T02:32:25.070Z,11.98
2022-10-12T02:35:05.510Z,16.27
2022-10-12T02:37:46.759Z,13.15
2022-10-12T02:41:15.846Z,13.48
2022-10-12T02:43:55.270Z,17.33
2022-10-12T02:46:26.417Z,22.90
2022-10-12T02:48:58.971Z,12.07
2022-10-12T02:51:30.045Z,10.05
2022-10-12T02:53:59.700Z,9.65
2022-10-12T02:56:27.979Z,13.55
2022-10-12T02:58:57.173Z,21.88
2022-10-12T03:01:24.998Z,20.02
2022-10-12T03:03:55.211Z,18.33
2022-10-12T03:06:23.948Z,21.52
2022-10-12T03:08:51.934Z,17.45
2022-10-12T03:11:20.397Z,20.52
2022-10-12T03:13:48.791Z,10.55
2022-10-12T03:16:17.167Z,10.93
2022-10-12T03:18:44.990Z,7.00
2022-10-12T03:21:13.043Z,6.03
2022-10-12T03:23:40.992Z,8.80
2022-10-12T03:26:09.348Z,7.20
2022-10-12T03:28:37.645Z,16.98
2022-10-12T03:31:05.657Z,9.20
2022-10-12T03:33:33.436Z,8.40
2022-10-12T03:36:01.687Z,10.43
2022-10-12T03:38:30.747Z,8.93
2022-10-12T03:41:02.896Z,9.18
2022-10-12T03:43:36.101Z,6.72
2022-10-12T03:46:04.247Z,8.02
2022-10-12T03:48:32.571Z,9.23
2022-10-12T03:51:01.223Z,7.43
2022-10-12T03:53:29.279Z,8.65
2022-10-12T03:55:57.217Z,14.82
2022-10-12T03:58:25.623Z,12.82
2022-10-12T04:00:55.862Z,18.27
2022-10-12T04:03:24.776Z,9.27
2022-10-12T04:05:57.658Z,11.60
2022-10-12T04:08:26.852Z,11.75
2022-10-12T04:10:55.090Z,13.10
2022-10-12T04:13:27.875Z,16.63
2022-10-12T04:18:24.985Z,6.38
2022-10-12T04:20:53.511Z,16.38
2022-10-12T04:23:21.855Z,13.40
2022-10-12T04:25:50.409Z,13.38
2022-10-12T04:28:19.920Z,10.27
2022-10-12T04:30:48.059Z,18.52
2022-10-12T04:33:15.890Z,16.67
2022-10-12T04:35:43.956Z,26.77
2022-10-12T04:38:13.507Z,23.40
2022-10-12T04:40:41.711Z,19.83
2022-10-12T04:43:09.565Z,11.98
2022-10-12T04:45:37.620Z,9.73
2022-10-12T04:48:05.406Z,8.05
2022-10-12T04:50:34.056Z,14.05
2022-10-12T04:53:02.188Z,11.63
2022-10-12T04:55:32.468Z,9.15
2022-10-12T04:58:01.140Z,12.00
2022-10-12T05:00:29.415Z,11.52
2022-10-12T05:02:59.597Z,7.38
2022-10-12T05:05:27.499Z,20.63
2022-10-12T05:07:55.441Z,16.58
2022-10-12T05:10:23.934Z,10.20
2022-10-12T05:12:51.643Z,6.22
2022-10-12T05:15:20.756Z,6.68
2022-10-12T05:17:49.003Z,7.13
2022-10-12T05:20:17.187Z,8.73
2022-10-12T05:22:45.090Z,8.68
2022-10-12T05:25:14.283Z,7.30
2022-10-12T05:27:42.932Z,7.50
2022-10-12T05:30:13.001Z,13.15
2022-10-12T05:32:41.110Z,9.10
2022-10-12T05:35:11.436Z,15.05
2022-10-12T05:37:39.595Z,9.65
2022-10-12T05:40:09.353Z,12.93
2022-10-12T05:42:37.359Z,13.20
2022-10-12T05:45:06.533Z,11.02
2022-10-12T05:47:34.690Z,11.13
2022-10-12T05:50:03.227Z,15.90
2022-10-12T05:52:30.956Z,12.63
2022-10-12T05:54:59.073Z,14.13
2022-10-12T05:57:28.046Z,12.88
2022-10-12T05:59:57.318Z,9.70
2022-10-12T06:02:25.959Z,9.88
2022-10-12T06:04:54.150Z,8.73
2022-10-12T06:07:22.629Z,9.82
2022-10-12T06:09:50.476Z,13.98
2022-10-12T06:12:18.371Z,9.05
2022-10-12T06:14:46.544Z,6.55
2022-10-12T06:17:14.381Z,9.13
2022-10-12T06:19:42.205Z,8.55
2022-10-12T06:22:10.040Z,9.20
2022-10-12T06:24:38.447Z,7.10
2022-10-12T06:27:06.488Z,9.55
2022-10-12T06:29:35.888Z,8.23
2022-10-12T06:32:04.612Z,9.65
2022-10-12T06:34:32.503Z,7.75
2022-10-12T06:37:02.043Z,9.73
2022-10-12T06:39:30.219Z,10.57
2022-10-12T06:41:58.084Z,8.93
2022-10-12T06:44:31.010Z,10.13
2022-10-12T06:47:02.776Z,9.80
2022-10-12T06:49:30.773Z,12.07
2022-10-12T06:51:59.531Z,9.35
2022-10-12T06:54:28.134Z,10.52
2022-10-12T06:56:58.743Z,11.95
2022-10-12T06:59:26.984Z,7.38
2022-10-12T07:01:57.275Z,9.10
2022-10-12T07:04:25.566Z,9.52
2022-10-12T07:06:53.354Z,7.47
2022-10-12T07:09:21.264Z,13.10
2022-10-12T07:11:49.268Z,8.95
2022-10-12T07:14:17.387Z,10.00
2022-10-12T07:16:46.076Z,8.60
2022-10-12T07:19:16.084Z,7.95
2022-10-12T07:21:45.232Z,6.18
2022-10-12T07:24:14.182Z,11.57
2022-10-12T07:26:42.085Z,6.97
2022-10-12T07:29:10.386Z,9.68
2022-10-12T07:31:38.252Z,9.00
2022-10-12T07:34:06.997Z,10.20
2022-10-12T07:36:59.445Z,13.48
2022-10-12T07:39:48.043Z,10.30
2022-10-12T07:42:19.237Z,8.30
2022-10-12T07:44:48.096Z,11.15
2022-10-12T07:47:17.720Z,8.18
2022-10-12T07:49:46.423Z,6.28
2022-10-12T07:52:14.875Z,6.78
2022-10-12T07:54:43.345Z,6.97
2022-10-12T07:57:11.677Z,6.10
2022-10-12T07:59:41.239Z,10.45
2022-10-12T08:02:12.712Z,12.25
2022-10-12T08:07:08.702Z,15.88
2022-10-12T08:09:36.573Z,10.65
2022-10-12T08:12:05.108Z,7.80
2022-10-12T08:14:33.263Z,9.23
2022-10-12T08:17:01.415Z,7.55
2022-10-12T08:19:35.089Z,8.85
2022-10-12T08:22:03.477Z,9.55
2022-10-12T08:24:34.393Z,11.35
2022-10-12T08:27:03.396Z,8.02
2022-10-12T08:29:32.726Z,9.05
2022-10-12T08:32:02.849Z,8.27
2022-10-12T08:34:31.089Z,9.40
2022-10-12T08:37:02.190Z,10.25
2022-10-12T08:39:30.675Z,7.68
2022-10-12T08:42:34.036Z,7.30
2022-10-12T08:45:39.076Z,8.20
2022-10-12T08:48:15.279Z,6.95
2022-10-12T08:50:53.828Z,6.45
2022-10-12T08:53:26.859Z,8.48
2022-10-12T08:55:56.951Z,14.30
2022-10-12T08:58:34.026Z,8.20
2022-10-12T09:01:16.626Z,8.30
2022-10-12T09:04:04.443Z,7.75
2022-10-12T09:06:55.626Z,10.93
2022-10-12T09:09:49.962Z,10.82
2022-10-12T09:12:41.862Z,6.90
2022-10-12T09:15:44.149Z,7.18
2022-10-12T09:18:40.835Z,10.00
2022-10-12T09:21:19.380Z,7.53
2022-10-12T09:23:49.381Z,10.43
2022-10-12T09:26:26.173Z,12.48
2022-10-12T09:28:58.229Z,9.63
2022-10-12T09:32:12.296Z,13.00
2022-10-12T09:34:41.394Z,9.35
2022-10-12T09:37:19.174Z,9.05
2022-10-12T09:39:48.068Z,8.48
2022-10-12T09:42:16.503Z,8.73
2022-10-12T09:44:52.743Z,8.88
2022-10-12T09:47:29.672Z,8.63
2022-10-12T09:50:04.728Z,9.25
2022-10-12T09:52:44.010Z,10.30
2022-10-12T09:58:02.724Z,9.48
2022-10-12T10:00:34.410Z,7.90
2022-10-12T10:03:02.938Z,6.50
2022-10-12T10:05:38.037Z,7.35
2022-10-12T10:08:15.144Z,9.73
2022-10-12T10:10:59.204Z,10.70
2022-10-12T10:13:31.720Z,9.32
2022-10-12T10:16:10.855Z,11.23
2022-10-12T10:18:49.010Z,10.57
2022-10-12T10:21:29.201Z,8.32
2022-10-12T10:24:07.338Z,9.65
2022-10-12T10:27:04.191Z,9.45
2022-10-12T10:29:42.349Z,11.98
2022-10-12T10:32:26.368Z,8.30
2022-10-12T10:35:13.865Z,9.48
2022-10-12T10:37:56.469Z,9.15
2022-10-12T10:40:32.519Z,9.48
2022-10-12T10:43:16.021Z,7.15
2022-10-12T10:45:56.911Z,10.32
2022-10-12T10:48:59.186Z,10.00
2022-10-12T10:51:51.031Z,8.38
2022-10-12T10:54:38.086Z,10.13
2022-10-12T10:57:23.776Z,11.00
2022-10-12T11:00:37.894Z,13.32
2022-10-12T11:02:58.614Z,12.82
2022-10-12T11:05:33.565Z,7.78
2022-10-12T11:08:27.143Z,9.93
2022-10-12T11:11:17.608Z,8.27
2022-10-12T11:14:19.641Z,8.68
2022-10-12T11:17:24.351Z,6.03
2022-10-12T11:20:10.517Z,7.95
2022-10-12T11:22:53.784Z,7.35
2022-10-12T11:25:54.497Z,11.43
2022-10-12T11:28:27.964Z,9.65
2022-10-12T11:30:56.748Z,10.18
2022-10-12T11:33:42.339Z,8.48
2022-10-12T11:36:24.647Z,8.93
2022-10-12T11:39:07.254Z,8.27
2022-10-12T11:42:09.662Z,8.75
2022-10-12T11:44:43.438Z,9.63
2022-10-12T11:47:47.668Z,8.43
2022-10-12T11:50:38.092Z,8.77
2022-10-12T11:53:33.804Z,8.35
2022-10-12T11:56:40.011Z,7.60
2022-10-12T11:59:43.256Z,8.65
2022-10-12T12:02:18.796Z,8.43
2022-10-12T12:04:49.736Z,7.30
2022-10-12T12:07:59.849Z,9.50
2022-10-12T12:10:37.429Z,8.32
2022-10-12T12:13:21.676Z,10.63
2022-10-12T12:15:52.181Z,9.38
2022-10-12T12:18:25.903Z,7.43
2022-10-12T12:21:05.364Z,7.53
2022-10-12T12:23:54.969Z,10.90
2022-10-12T12:26:28.935Z,7.25
2022-10-12T12:29:17.777Z,9.70
2022-10-12T12:32:02.369Z,7.78
2022-10-12T12:34:32.396Z,11.35
2022-10-12T12:37:12.759Z,7.78
2022-10-12T12:39:43.650Z,7.05
2022-10-12T12:42:20.697Z,11.95
2022-10-12T12:44:48.885Z,10.95
2022-10-12T12:47:51.476Z,11.45
2022-10-12T12:50:35.607Z,7.95
2022-10-12T12:53:18.624Z,7.53
2022-10-12T12:57:00.821Z,8.43
2022-10-12T13:00:07.056Z,12.65
2022-10-12T13:03:09.557Z,7.50
2022-10-12T13:06:23.561Z,7.05
2022-10-12T13:09:29.043Z,7.75
2022-10-12T13:12:06.195Z,12.68
2022-10-12T13:15:37.875Z,9.93
2022-10-12T13:18:47.566Z,7.68
2022-10-12T13:21:24.549Z,10.10
2022-10-12T13:24:26.541Z,8.48
2022-10-12T13:27:32.850Z,10.35
2022-10-12T13:30:11.874Z,6.70
2022-10-12T13:33:14.599Z,9.65
2022-10-12T13:36:35.364Z,7.90
2022-10-12T13:39:22.942Z,8.57
2022-10-12T13:41:56.376Z,6.00
2022-10-12T13:44:35.161Z,9.45
2022-10-12T13:47:31.306Z,10.18
2022-10-12T13:50:01.929Z,8.57
2022-10-12T13:52:34.827Z,8.43
2022-10-12T13:55:16.571Z,11.35
2022-10-12T13:57:48.632Z,9.80
2022-10-12T14:00:16.704Z,7.03
2022-10-12T14:02:56.854Z,7.75
2022-10-12T14:05:30.037Z,7.97
2022-10-12T14:08:07.696Z,9.07
2022-10-12T14:10:38.290Z,8.73
2022-10-12T14:13:07.182Z,8.73
2022-10-12T14:15:39.749Z,7.82
2022-10-12T14:18:36.078Z,10.05
2022-10-12T14:21:33.263Z,9.27
2022-10-12T14:24:10.437Z,7.78
2022-10-12T14:26:45.339Z,9.50
2022-10-12T14:29:49.100Z,11.07
2022-10-12T14:32:36.311Z,7.43
2022-10-12T14:35:18.351Z,9.43
2022-10-12T14:37:48.308Z,9.18
2022-10-12T14:40:32.709Z,7.93
2022-10-12T14:43:03.979Z,7.72
2022-10-12T14:45:33.332Z,9.77
2022-10-12T14:48:02.472Z,8.10
2022-10-12T14:50:32.711Z,10.73
2022-10-12T14:53:07.552Z,7.43
2022-10-12T14:55:35.639Z,7.75
2022-10-12T14:58:14.018Z,6.18
2022-10-12T15:00:43.512Z,6.40
2022-10-12T15:03:12.073Z,6.90
2022-10-12T15:05:40.103Z,11.93
2022-10-12T15:08:10.580Z,10.57
2022-10-12T15:10:38.532Z,8.07
2022-10-12T15:13:06.377Z,8.57
2022-10-12T15:15:45.829Z,5.63
2022-10-12T15:18:14.851Z,6.72
2022-10-12T15:20:48.408Z,9.45
2022-10-12T15:23:17.424Z,8.27
2022-10-12T15:25:54.893Z,7.93
2022-10-12T15:28:23.592Z,13.27
2022-10-12T15:31:15.887Z,14.35
2022-10-12T15:33:41.310Z,6.15
2022-10-12T15:36:10.799Z,6.53
2022-10-12T15:38:39.125Z,7.30
2022-10-12T15:41:17.625Z,10.65
2022-10-12T15:43:45.527Z,10.93
2022-10-12T15:46:13.671Z,8.82
2022-10-12T15:48:42.122Z,8.90
2022-10-12T15:51:19.174Z,6.72
2022-10-12T15:53:47.432Z,4.13
2022-10-12T15:56:17.971Z,9.07
2022-10-12T15:58:46.376Z,6.72
2022-10-12T16:01:21.147Z,8.18
2022-10-12T16:03:50.111Z,6.93
2022-10-12T16:06:18.820Z,7.85
2022-10-12T16:08:48.048Z,7.38
2022-10-12T16:11:18.479Z,7.30
2022-10-12T16:13:54.017Z,5.95
2022-10-12T16:16:24.568Z,8.65
2022-10-12T16:18:54.009Z,8.77
2022-10-12T16:21:22.173Z,7.93
2022-10-12T16:23:51.014Z,8.50
2022-10-12T16:26:20.314Z,6.40
2022-10-12T16:28:48.891Z,7.65
2022-10-12T16:31:18.708Z,7.38
2022-10-12T16:33:47.045Z,5.43
2022-10-12T16:36:17.973Z,4.47
2022-10-12T16:38:46.454Z,8.60
2022-10-12T16:41:18.842Z,6.78
2022-10-12T16:43:46.848Z,5.95
2022-10-12T16:46:15.953Z,5.38
2022-10-12T16:48:44.797Z,8.30
2022-10-12T16:51:14.071Z,7.18
2022-10-12T16:53:42.472Z,6.53
2022-10-12T16:56:11.057Z,8.02
2022-10-12T16:58:39.447Z,8.20
2022-10-12T17:01:14.062Z,11.93
2022-10-12T17:03:42.731Z,7.78
2022-10-12T17:06:12.915Z,10.55
2022-10-12T17:08:41.979Z,10.07
2022-10-12T17:11:13.828Z,11.95
2022-10-12T17:13:48.081Z,20.55
2022-10-12T17:16:37.316Z,20.60
2022-10-12T17:19:08.453Z,14.02
2022-10-12T17:21:45.576Z,10.35
2022-10-12T17:24:17.304Z,7.63
2022-10-12T17:26:46.364Z,8.98
2022-10-12T17:29:18.689Z,6.47
2022-10-12T17:31:48.940Z,10.85
2022-10-12T17:34:26.330Z,9.60
2022-10-12T17:36:58.782Z,8.52
2022-10-12T17:39:30.391Z,9.40
2022-10-12T17:42:00.402Z,7.68
2022-10-12T17:44:30.078Z,10.60
2022-10-12T17:47:00.797Z,10.65
2022-10-12T17:49:30.108Z,10.45
2022-10-12T17:52:00.213Z,12.25
2022-10-12T17:54:29.768Z,7.35
2022-10-12T17:56:59.206Z,5.82
2022-10-12T17:59:27.699Z,6.72
2022-10-12T18:01:55.791Z,7.35
2022-10-12T18:04:25.164Z,9.43
2022-10-12T18:06:57.583Z,7.13
2022-10-12T18:11:56.228Z,6.13
2022-10-12T18:14:24.670Z,7.22
2022-10-12T18:16:54.837Z,5.97
2022-10-12T18:19:23.642Z,5.85
2022-10-12T18:21:51.482Z,7.88
2022-10-12T18:24:23.825Z,7.80
2022-10-12T18:26:53.485Z,12.18
2022-10-12T18:29:22.837Z,5.45
2022-10-12T18:31:51.213Z,8.05
2022-10-12T18:34:19.520Z,7.82
2022-10-12T18:36:49.562Z,6.50
2022-10-12T18:39:22.292Z,6.22
2022-10-12T18:41:54.091Z,9.30
2022-10-12T18:44:22.060Z,10.55
2022-10-12T18:46:51.612Z,9.60
2022-10-12T18:49:20.276Z,4.20
2022-10-12T18:51:51.969Z,7.78
2022-10-12T18:56:49.089Z,9.45
2022-10-12T18:59:20.038Z,5.30
2022-10-12T19:01:49.919Z,7.30
2022-10-12T19:04:19.208Z,6.75
2022-10-12T19:06:49.008Z,10.73
2022-10-12T19:09:19.089Z,7.97
2022-10-12T19:11:48.151Z,6.95
2022-10-12T19:14:17.366Z,8.50
2022-10-12T19:16:46.469Z,9.63
2022-10-12T19:19:21.100Z,9.38
2022-10-12T19:21:54.072Z,9.10
2022-10-12T19:24:22.931Z,11.95
2022-10-12T19:26:56.507Z,7.97
2022-10-12T19:29:26.067Z,6.15
2022-10-12T19:31:54.693Z,4.70
2022-10-12T19:34:24.141Z,5.75
2022-10-12T19:36:53.066Z,5.20
2022-10-12T19:39:23.915Z,5.10
2022-10-12T19:41:53.043Z,6.60
2022-10-12T19:44:22.058Z,4.90
2022-10-12T19:46:53.839Z,6.40
2022-10-12T19:49:22.863Z,4.32
2022-10-12T19:51:51.025Z,5.78
2022-10-12T19:54:19.758Z,5.60
2022-10-12T19:56:48.156Z,5.95
2022-10-12T19:59:16.701Z,5.80
2022-10-12T20:01:48.239Z,7.90
2022-10-12T20:04:17.889Z,6.25
2022-10-12T20:06:46.281Z,7.47
2022-10-12T20:09:15.065Z,7.65
2022-10-12T20:11:45.510Z,13.15
2022-10-12T20:14:15.274Z,8.57
2022-10-12T20:16:48.543Z,8.48
2022-10-12T20:19:17.194Z,8.48
2022-10-12T20:21:45.531Z,8.60
2022-10-12T20:24:14.421Z,8.73
2022-10-12T20:26:44.028Z,6.30
2022-10-12T20:29:13.402Z,11.35
2022-10-12T20:31:44.540Z,6.50
2022-10-12T20:34:13.365Z,6.25
2022-10-12T20:36:41.535Z,7.90
2022-10-12T20:39:09.694Z,4.93
2022-10-12T20:41:41.489Z,6.07
2022-10-12T20:44:11.048Z,9.23
2022-10-12T20:46:39.100Z,6.45
2022-10-12T20:49:07.934Z,6.47
2022-10-12T20:51:41.736Z,4.85
2022-10-12T20:54:18.932Z,6.50
2022-10-12T20:56:49.581Z,9.55
2022-10-12T20:59:20.616Z,9.45
2022-10-12T21:01:48.883Z,8.35
2022-10-12T21:04:16.719Z,9.48
2022-10-12T21:06:44.643Z,9.43
2022-10-12T21:09:14.783Z,7.82
2022-10-12T21:11:43.736Z,12.57
2022-10-12T21:14:13.059Z,12.18
2022-10-12T21:16:41.242Z,13.23
2022-10-12T21:19:17.202Z,9.02
2022-10-12T21:21:46.569Z,9.60
2022-10-12T21:24:15.628Z,9.65
2022-10-12T21:26:44.465Z,9.18
2022-10-12T21:29:13.063Z,6.75
2022-10-12T21:31:41.360Z,7.15
2022-10-12T21:34:10.739Z,7.57
2022-10-12T21:36:39.487Z,13.63
2022-10-12T21:39:17.951Z,10.52
2022-10-12T21:41:46.254Z,8.13
2022-10-12T21:44:15.380Z,7.53
2022-10-12T21:46:44.344Z,5.97
2022-10-12T21:49:15.689Z,6.95
2022-10-12T21:51:44.848Z,6.00
2022-10-12T21:54:12.817Z,7.05
2022-10-12T21:56:42.618Z,7.43
2022-10-12T21:59:10.733Z,8.30
2022-10-12T22:04:23.365Z,7.95
2022-10-12T22:06:51.418Z,8.93
2022-10-12T22:09:22.252Z,8.02
2022-10-12T22:11:51.433Z,8.15
2022-10-12T22:14:21.949Z,10.30
2022-10-12T22:16:50.928Z,6.37
2022-10-12T22:19:20.915Z,7.80
2022-10-12T22:21:51.853Z,8.50
2022-10-12T22:26:49.613Z,9.25
2022-10-12T22:29:17.477Z,8.73
2022-10-12T22:31:47.089Z,6.93
2022-10-12T22:34:16.456Z,8.07
2022-10-12T22:36:47.832Z,10.10
2022-10-12T22:39:21.518Z,9.05
2022-10-12T22:41:49.399Z,9.73
2022-10-12T22:44:17.970Z,8.80
2022-10-12T22:46:45.970Z,10.57
2022-10-12T22:49:14.011Z,9.25
2022-10-12T22:51:42.588Z,10.70
2022-10-12T22:54:13.164Z,9.95
2022-10-12T22:56:42.796Z,10.00
2022-10-12T22:59:14.496Z,10.75
2022-10-12T23:01:42.780Z,10.05
2022-10-12T23:04:11.196Z,15.15
2022-10-12T23:06:39.248Z,8.63
2022-10-12T23:09:07.199Z,10.88
2022-10-12T23:11:35.145Z,12.55
2022-10-12T23:14:03.067Z,7.05
2022-10-12T23:16:33.985Z,8.50
2022-10-12T23:19:05.901Z,8.73
2022-10-12T23:21:35.438Z,7.60
2022-10-12T23:24:07.239Z,8.93
2022-10-12T23:26:35.701Z,7.63
2022-10-12T23:29:05.016Z,9.45
2022-10-12T23:31:33.526Z,6.88
2022-10-12T23:34:05.422Z,10.25
2022-10-12T23:36:34.803Z,9.25
2022-10-12T23:39:05.552Z,6.55
2022-10-12T23:41:33.882Z,5.93
2022-10-12T23:44:02.501Z,6.55
2022-10-12T23:46:30.611Z,6.70
2022-10-12T23:48:58.807Z,5.68
2022-10-12T23:51:27.352Z,10.43
2022-10-12T23:53:55.289Z,8.75
2022-10-12T23:56:23.951Z,8.45
2022-10-12T23:58:52.435Z,8.95
